Flight Track Log - Related Links

Times and Time Zones

All times are in EDT time to prevent confusion due to time zone crossing. See the EGF3994 flight status page for this flight to view local times or setup timezone preferences in your user account.

Time Position Orientation Groundspeed Altitude Reporting Facility
EDT Latitude Longitude Course Direction KTS MPH feet Rate Location/Type
Sat 08:17:17 PM 41.9500 -87.9000 90° East 165 190 1,500  Level Chicago TRACON
Sat 08:18:17 PM 41.9000 -87.8500 143° Southeast 230 265 3,400 1,636 Climbing Chicago TRACON
Sat 08:19:00 PM 41.9624 -87.4906 98° East  Level FlightAware Approximate
Sat 08:19:18 PM 41.8667 -87.7833 124° Southeast 273 314 4,800  Level Chicago TRACON
Sat 08:19:33 PM 41.8589 -87.7561 111° Southeast 263 303 5,000 158 Climbing Chicago Center
Sat 08:20:00 PM 41.9492 -87.3552 95° East  Level FlightAware Approximate
Sat 08:20:34 PM 41.8256 -87.6606 115° Southeast 279 321 5,000  Level Chicago Center
Sat 08:21:00 PM 41.9395 -87.2193 95° East  Level FlightAware Approximate
Sat 08:21:35 PM 41.7825 -87.5800 126° Southeast 276 318 5,000  Level Chicago Center
Sat 08:22:00 PM 41.9333 -87.0832 90° East  Level FlightAware Approximate
Sat 08:22:37 PM 41.7442 -87.4950 121° Southeast 281 323 5,000  Level Chicago Center
Sat 08:23:39 PM 41.7494 -87.3875 86° East 287 330 6,600 1,854 Climbing Chicago Center
Sat 08:24:40 PM 41.7550 -87.2786 86° East 293 337 8,800 1,951 Climbing Chicago Center
Sat 08:25:42 PM 41.7644 -87.1636 84° East 308 354 10,600 2,049 Climbing Chicago Center
Sat 08:26:43 PM 41.8211 -87.0364 59° Northeast 326 375 13,000 1,854 Climbing Chicago Center
Sat 08:27:45 PM 41.8400 -86.9150 78° East 333 383 14,400 1,122 Climbing Chicago Center
Sat 08:28:46 PM 41.8272 -86.7831 97° East 353 406 15,300 976 Climbing Chicago Center
Sat 08:29:48 PM 41.8178 -86.6303 95° East 380 437 16,400 1,016 Climbing Chicago Center
Sat 08:30:50 PM 41.8094 -86.4833 94° East 395 455 17,400 1,073 Climbing Chicago Center
Sat 08:31:51 PM 41.7994 -86.3328 95° East 403 464 18,600 1,024 Climbing Chicago Center
Sat 08:32:53 PM 41.7900 -86.1794 95° East 412 474 19,500 927 Climbing Chicago Center
Sat 08:33:54 PM 41.7803 -86.0228 95° East 421 484 20,500 976 Climbing Chicago Center
Sat 08:34:56 PM 41.7708 -85.8656 95° East 422 486 21,500 968 Climbing Chicago Center
Sat 08:35:58 PM 41.7608 -85.7047 95° East 430 495 22,500 732 Climbing Chicago Center
Sat 08:36:59 PM 41.7381 -85.5478 101° East 425 489 23,000 244 Climbing Chicago Center
Sat 08:38:01 PM 41.6317 -85.4633 149° Southeast 403 464 23,000  Level Chicago Center
Sat 08:39:02 PM 41.5242 -85.4167 162° South 403 464 23,000  Level Chicago Center
Sat 08:40:04 PM 41.4178 -85.3697 162° South 406 467 23,000 -341 Level Chicago Center
Sat 08:41:05 PM 41.3100 -85.3244 162° South 407 468 22,300 -829 Descending Chicago Center
Sat 08:42:07 PM 41.2056 -85.2806 162° South 399 459 21,300 -1,073 Descending Chicago Center
Sat 08:43:08 PM 41.0803 -85.2275 162° South 395 455 20,100 -1,171 Descending Chicago Center
Sat 08:44:10 PM 40.9769 -85.1800 161° South 395 455 18,900 -1,220 Descending Chicago Center
Sat 08:45:11 PM 40.9031 -85.0589 129° Southeast 421 484 17,600 -1,220 Descending Chicago Center
Sat 08:46:13 PM 40.8358 -84.9456 128° Southeast 404 465 16,400 -1,065 Descending Chicago Center
Sat 08:47:15 PM 40.7700 -84.8342 128° Southeast 392 451 15,400 -683 Descending Chicago Center
Sat 08:48:16 PM 40.7086 -84.7317 128° Southeast 368 423 15,000 -195 Descending Chicago Center
Sat 08:49:18 PM 40.6606 -84.6503 128° Southeast 299 344 15,000  Level Chicago Center
Sat 08:49:55 PM 40.6081 -84.6233 159° South 260 299 15,000  Level Indianapolis Center
Sat 08:50:17 PM 40.5772 -84.6128 165° South 287 330 15,000 -83 Level Indianapolis Center
Sat 08:51:07 PM 40.5075 -84.5953 169° South 314 361 14,900 -645 Descending Indianapolis Center
Sat 08:52:18 PM 40.4061 -84.5694 169° South 312 359 13,700 -984 Descending Indianapolis Center
Sat 08:53:09 PM 40.3411 -84.5531 169° South 301 346 12,900 -1,027 Descending Indianapolis Center
Sat 08:54:09 PM 40.2689 -84.5128 157° South 269 310 11,800 -1,091 Descending Indianapolis Center
Sat 08:55:10 PM 40.2006 -84.4761 158° South 257 296 10,700 -1,033 Descending Indianapolis Center
Sat 08:56:11 PM 40.1261 -84.4386 159° South 266 306 9,700 -992 Descending Indianapolis Center
Sat 08:57:11 PM 40.0594 -84.4078 161° South 259 298 8,700 -992 Descending Indianapolis Center
Sat 08:58:12 PM 39.9911 -84.3711 158° South 267 307 7,700 -1,172 Descending Indianapolis Center
Sat 08:59:19 PM 39.9181 -84.3422 163° South 253 291 6,200 -1,512 Descending Indianapolis Center
Sat 09:00:19 PM 39.8442 -84.3214 168° South 248 285 4,500 -1,091 Descending Indianapolis Center
Sat 09:01:20 PM 39.8278 -84.2375 104° East 293 337 4,000 -378 Descending Indianapolis Center
Sat 09:02:26 PM 39.8533 -84.1328 72° East 288 331 3,700 -273 Descending Indianapolis Center

Login

Don't have an account? Register now (free) for customized features, flight alerts, and more!